Time;durP1;ratioP1;P1;durP2;ratioP2;P2;SDS_P1;SDS_P2;PMS_P1;PMS_P2;Temp;Humidity;BMP_temperature;BMP_pressure;BME280_temperature;BME280_humidity;BME280_pressure;Samples;Min_cycle;Max_cycle;Signal;HPM_P1;HPM_P2
2023/05/31 00:00:53;;;;;;;7.40;2.30;;;;;;;15.73;60.19;101582.09;5035855;57;1265926;-70
2023/05/31 00:06:00;;;;;;;6.42;2.45;;;;;;;15.59;60.05;101591.69;5077878;57;1138690;-67
2023/05/31 00:11:07;;;;;;;9.18;2.00;;;;;;;15.46;60.08;101591.32;5056757;57;1138843;-70
2023/05/31 00:16:13;;;;;;;5.20;2.17;;;;;;;15.31;60.56;101591.70;5055497;57;1138934;-66
2023/05/31 00:21:18;;;;;;;7.60;2.30;;;;;;;15.18;60.55;101599.00;5058205;57;1138777;-67
2023/05/31 00:26:24;;;;;;;11.00;1.77;;;;;;;15.08;60.92;101604.22;5016749;57;1139121;-65
2023/05/31 00:31:30;;;;;;;7.33;1.93;;;;;;;14.97;61.28;101597.57;5055032;57;1141457;-67
2023/05/31 00:36:36;;;;;;;6.62;2.40;;;;;;;14.84;61.43;101599.47;5055639;56;1138871;-66
2023/05/31 00:41:41;;;;;;;7.80;2.17;;;;;;;14.78;61.66;101596.83;5074654;57;1138723;-70
2023/05/31 00:46:47;;;;;;;4.73;2.10;;;;;;;14.75;61.90;101599.23;5055257;56;1138795;-65
2023/05/31 00:51:53;;;;;;;5.47;2.50;;;;;;;14.65;62.03;101598.75;5055364;56;1138836;-66
2023/05/31 00:56:58;;;;;;;6.55;2.30;;;;;;;14.49;62.26;101602.23;5075262;56;1138980;-71
2023/05/31 01:02:05;;;;;;;5.15;2.67;;;;;;;14.33;62.63;101598.05;5140600;56;1138892;-67
2023/05/31 01:07:11;;;;;;;5.73;2.27;;;;;;;14.24;62.87;101612.51;5142442;56;1138863;-70
2023/05/31 01:12:49;;;;;;;8.90;1.87;;;;;;;14.15;63.37;101622.53;5103029;56;1138997;-68
2023/05/31 01:18:09;;;;;;;8.05;2.47;;;;;;;14.09;63.47;101614.03;5057758;57;1138746;-69
2023/05/31 01:23:37;;;;;;;6.37;2.60;;;;;;;13.92;63.62;101609.12;5057705;56;1138831;-68
2023/05/31 01:28:44;;;;;;;7.93;2.93;;;;;;;13.82;64.23;101601.47;5055666;56;1138782;-67
2023/05/31 01:33:51;;;;;;;11.73;2.62;;;;;;;13.71;64.42;101606.73;5075308;57;1138670;-69
2023/05/31 01:38:57;;;;;;;3.92;2.47;;;;;;;13.60;64.60;101615.47;4925104;57;1140822;-68
2023/05/31 01:44:03;;;;;;;6.95;2.52;;;;;;;13.56;65.14;101617.16;5055459;56;1138814;-67
2023/05/31 01:49:10;;;;;;;7.70;1.83;;;;;;;13.48;65.25;101617.70;5075289;56;1138909;-69
2023/05/31 01:54:16;;;;;;;6.17;2.50;;;;;;;13.38;65.54;101620.66;4985408;56;1139234;-68
2023/05/31 01:59:22;;;;;;;10.17;3.70;;;;;;;13.26;65.79;101619.73;4975699;57;1139052;-66
2023/05/31 02:04:28;;;;;;;8.38;3.87;;;;;;;13.16;66.04;101631.09;5041713;57;1141202;-67
2023/05/31 02:09:34;;;;;;;6.97;2.47;;;;;;;13.12;66.67;101634.92;5075191;56;1138887;-67
2023/05/31 02:14:41;;;;;;;11.53;2.47;;;;;;;13.23;66.87;101637.69;4958434;58;1138864;-66
2023/05/31 02:19:47;;;;;;;9.57;3.30;;;;;;;13.21;66.64;101629.83;5071215;56;1141134;-66
2023/05/31 02:24:52;;;;;;;7.70;3.20;;;;;;;13.12;66.63;101630.94;5060751;56;1138816;-67
2023/05/31 02:29:58;;;;;;;7.87;3.27;;;;;;;13.02;66.99;101624.92;5126047;56;1138903;-68
2023/05/31 02:35:06;;;;;;;14.20;3.62;;;;;;;12.97;67.18;101626.22;5124976;56;1138946;-67
2023/05/31 02:40:12;;;;;;;7.97;3.23;;;;;;;13.04;67.88;101620.84;5066000;56;1141023;-67
2023/05/31 02:45:18;;;;;;;14.00;2.73;;;;;;;13.07;67.69;101620.63;5041771;57;1138847;-69
2023/05/31 02:50:23;;;;;;;8.20;3.37;;;;;;;13.01;67.43;101619.72;5041438;57;1140782;-67
2023/05/31 02:55:31;;;;;;;14.13;2.80;;;;;;;13.01;67.90;101611.27;5041037;57;1139010;-69
2023/05/31 03:00:47;;;;;;;5.43;2.43;;;;;;;13.08;67.99;101623.66;5030875;57;1140891;-69
2023/05/31 03:05:54;;;;;;;9.40;3.43;;;;;;;12.98;67.32;101611.52;5041869;57;1138642;-68
2023/05/31 03:10:59;;;;;;;10.13;3.10;;;;;;;12.79;67.50;101615.55;5079655;56;1138941;-68
2023/05/31 03:16:05;;;;;;;17.37;3.35;;;;;;;12.60;67.89;101616.81;4979217;58;1141058;-67
2023/05/31 03:21:11;;;;;;;14.03;2.97;;;;;;;12.57;68.87;101616.16;5126770;55;1140837;-69
2023/05/31 03:26:16;;;;;;;11.00;3.05;;;;;;;12.46;69.08;101618.23;5126187;56;1141167;-68
2023/05/31 03:31:22;;;;;;;11.50;2.90;;;;;;;12.37;69.80;101616.22;5145968;56;1140942;-69
2023/05/31 03:36:28;;;;;;;10.17;3.50;;;;;;;12.28;70.24;101614.17;5126789;56;1140957;-70
2023/05/31 03:41:34;;;;;;;14.68;3.87;;;;;;;12.22;70.97;101627.35;5081889;56;1141098;-67
2023/05/31 03:46:40;;;;;;;7.40;2.70;;;;;;;12.30;72.08;101628.18;4978782;57;1140822;-68
2023/05/31 03:51:45;;;;;;;9.70;3.17;;;;;;;12.35;71.95;101636.69;5097812;56;1138690;-66
2023/05/31 03:56:51;;;;;;;15.80;3.27;;;;;;;12.43;72.48;101638.81;5062291;57;1138694;-66
2023/05/31 04:01:57;;;;;;;14.83;3.45;;;;;;;12.44;72.66;101633.41;5062092;57;1141005;-70
2023/05/31 04:07:04;;;;;;;10.75;3.52;;;;;;;12.47;73.59;101633.20;5048643;57;1140975;-69
2023/05/31 04:12:11;;;;;;;8.57;3.13;;;;;;;12.50;73.59;101636.98;5057007;56;1140989;-66
2023/05/31 04:17:16;;;;;;;11.80;3.80;;;;;;;12.55;73.80;101635.32;5072398;56;1138998;-70
2023/05/31 04:22:23;;;;;;;7.70;2.97;;;;;;;12.60;75.23;101643.36;5052463;56;1140926;-67
2023/05/31 04:27:30;;;;;;;25.95;3.50;;;;;;;12.57;75.20;101649.34;5116030;56;1138861;-70
2023/05/31 04:32:36;;;;;;;13.00;3.92;;;;;;;12.53;76.63;101647.36;5137511;56;1141016;-70
2023/05/31 04:37:42;;;;;;;39.90;4.30;;;;;;;12.52;77.66;101651.48;5120106;56;1140890;-67
2023/05/31 04:42:48;;;;;;;9.03;3.00;;;;;;;12.60;77.91;101644.68;5053144;56;1140928;-70
2023/05/31 04:47:57;;;;;;;12.30;3.70;;;;;;;12.63;77.92;101639.64;5046935;57;1138755;-67
2023/05/31 04:53:03;;;;;;;9.50;3.22;;;;;;;12.73;79.34;101640.70;5072224;57;1140705;-70
2023/05/31 04:58:09;;;;;;;8.75;2.80;;;;;;;12.87;79.61;101645.91;4890628;58;1138720;-70
2023/05/31 05:03:18;;;;;;;11.67;3.23;;;;;;;12.92;79.82;101641.62;5052076;57;1138865;-66
2023/05/31 05:08:23;;;;;;;7.33;2.90;;;;;;;13.08;80.21;101648.89;5067404;56;1141031;-68
2023/05/31 05:13:30;;;;;;;13.17;3.20;;;;;;;13.20;80.16;101646.72;5052944;57;1138926;-68
2023/05/31 05:18:36;;;;;;;8.05;3.35;;;;;;;13.36;80.93;101647.34;5052781;57;1140862;-66
2023/05/31 05:23:42;;;;;;;8.07;2.10;;;;;;;13.54;80.15;101634.55;5072662;57;1138752;-68
2023/05/31 05:28:49;;;;;;;8.93;3.57;;;;;;;13.79;80.08;101634.92;5136140;56;1138957;-67
2023/05/31 05:33:55;;;;;;;9.37;3.03;;;;;;;13.85;78.38;101626.98;5138122;56;1138773;-67
2023/05/31 05:39:04;;;;;;;8.38;3.15;;;;;;;13.99;78.70;101623.67;5097491;56;1138790;-66
2023/05/31 05:44:08;;;;;;;13.35;3.33;;;;;;;14.29;78.05;101625.00;5052546;57;1138721;-69
2023/05/31 05:49:14;;;;;;;9.03;2.87;;;;;;;14.57;77.94;101621.11;5052723;56;1140813;-68
2023/05/31 05:54:20;;;;;;;20.60;3.27;;;;;;;14.89;76.66;101624.80;5070602;57;1138800;-70
2023/05/31 05:59:28;;;;;;;13.23;3.47;;;;;;;15.17;76.35;101620.80;5051059;57;1140835;-65
2023/05/31 06:04:38;;;;;;;3.97;1.60;;;;;;;15.42;74.16;101622.38;5001011;57;1141270;-69
2023/05/31 06:09:44;;;;;;;8.00;2.70;;;;;;;15.66;72.78;101618.23;5047972;56;1139018;-68
2023/05/31 06:14:50;;;;;;;5.10;2.13;;;;;;;15.85;71.81;101621.09;5061987;57;1139037;-68
2023/05/31 06:19:56;;;;;;;15.80;2.58;;;;;;;16.07;69.26;101622.33;5042083;56;1138725;-66
2023/05/31 06:25:02;;;;;;;6.23;2.07;;;;;;;16.27;69.07;101624.67;5063266;56;1140795;-70
2023/05/31 06:30:09;;;;;;;7.10;2.15;;;;;;;16.43;68.89;101617.55;5146817;56;1138793;-68
2023/05/31 06:35:16;;;;;;;3.23;1.97;;;;;;;16.72;68.57;101613.27;5125415;56;1138632;-66
2023/05/31 06:40:23;;;;;;;7.23;2.00;;;;;;;16.87;66.27;101612.44;5043883;56;1138828;-69
2023/05/31 06:45:29;;;;;;;4.27;2.07;;;;;;;16.98;65.74;101604.32;5042217;57;1138769;-70
2023/05/31 06:50:36;;;;;;;10.87;2.47;;;;;;;17.25;65.91;101601.08;5054696;57;1138884;-65
2023/05/31 06:55:59;;;;;;;9.70;2.34;;;;;;;17.56;64.36;101596.02;5037209;57;1140856;-68
2023/05/31 07:01:05;;;;;;;7.58;1.80;;;;;;;17.76;62.76;101583.52;5040614;57;1138932;-66
2023/05/31 07:06:11;;;;;;;5.83;2.17;;;;;;;17.90;62.06;101587.61;5062046;57;1138708;-65
2023/05/31 07:11:17;;;;;;;4.83;1.90;;;;;;;18.08;60.76;101584.59;5047388;57;1138804;-65
2023/05/31 07:16:22;;;;;;;5.47;1.73;;;;;;;18.21;60.94;101573.09;5056387;57;1138769;-68
2023/05/31 07:21:29;;;;;;;4.22;1.72;;;;;;;18.53;59.71;101575.92;4985880;58;1138819;-67
2023/05/31 07:26:34;;;;;;;6.63;1.93;;;;;;;18.73;58.04;101566.88;5037828;57;1138745;-71
2023/05/31 07:31:40;;;;;;;2.57;1.33;;;;;;;18.86;55.53;101569.23;5053932;57;1138662;-68
2023/05/31 07:36:45;;;;;;;3.95;1.40;;;;;;;18.83;53.43;101554.28;5054159;57;1139018;-67
2023/05/31 07:41:51;;;;;;;4.67;1.80;;;;;;;18.98;54.02;101559.51;5073552;57;1138942;-70
2023/05/31 07:46:57;;;;;;;3.83;1.37;;;;;;;19.18;55.07;101549.54;5053916;57;1138965;-67
2023/05/31 07:52:04;;;;;;;6.62;1.90;;;;;;;19.49;54.63;101550.08;5023806;57;1138951;-70
2023/05/31 07:57:09;;;;;;;3.33;1.45;;;;;;;19.71;49.45;101545.28;5023511;57;1138843;-69
2023/05/31 08:02:15;;;;;;;7.92;1.60;;;;;;;19.63;49.95;101546.88;4972666;57;1138777;-68
2023/05/31 08:07:21;;;;;;;2.98;1.15;;;;;;;19.59;50.19;101544.64;4972519;57;1138667;-70
2023/05/31 08:12:26;;;;;;;1.45;1.32;;;;;;;19.82;48.48;101546.38;5071846;56;1138910;-65
2023/05/31 08:17:32;;;;;;;4.45;1.50;;;;;;;19.94;45.18;101540.62;5045446;56;1138764;-67
2023/05/31 08:22:37;;;;;;;3.85;1.25;;;;;;;19.78;46.33;101529.73;5042661;57;1138734;-68
2023/05/31 08:27:43;;;;;;;5.55;1.42;;;;;;;19.69;47.95;101525.30;5129351;56;1138888;-67
2023/05/31 08:32:49;;;;;;;7.78;1.65;;;;;;;19.94;47.23;101527.69;5126867;56;1138710;-66
2023/05/31 08:37:54;;;;;;;4.08;1.10;;;;;;;20.21;43.57;101524.87;5127049;56;1138755;-64
2023/05/31 08:43:04;;;;;;;10.90;1.40;;;;;;;20.35;45.76;101520.27;5147196;56;1138870;-67
2023/05/31 08:48:46;;;;;;;1.37;1.22;;;;;;;20.64;45.22;101518.61;5126769;56;1140864;-69
2023/05/31 08:53:52;;;;;;;1.25;1.07;;;;;;;20.86;45.44;101515.88;5061698;56;1139198;-68
2023/05/31 08:58:58;;;;;;;6.28;1.25;;;;;;;20.78;41.66;101512.33;5042706;57;1138678;-69
2023/05/31 09:04:06;;;;;;;2.12;1.27;;;;;;;20.56;39.97;101501.11;5062316;57;1139176;-67
2023/05/31 09:09:11;;;;;;;2.22;1.07;;;;;;;20.81;41.80;101511.97;5045123;56;1138989;-70
2023/05/31 09:14:17;;;;;;;1.35;0.90;;;;;;;21.18;38.46;101498.17;5045287;56;1138788;-68
2023/05/31 09:19:23;;;;;;;2.98;1.00;;;;;;;21.46;36.03;101504.14;5077646;56;1138905;-69
2023/05/31 09:24:28;;;;;;;1.30;1.20;;;;;;;21.64;36.08;101495.42;5069971;56;1138867;-68
2023/05/31 09:29:34;;;;;;;6.75;1.35;;;;;;;21.83;37.28;101492.91;5143006;56;1138974;-67
2023/05/31 09:34:40;;;;;;;5.20;1.10;;;;;;;21.99;34.62;101498.30;5106142;56;1138728;-70
2023/05/31 09:39:56;;;;;;;3.47;0.88;;;;;;;22.16;34.56;101493.23;5163039;56;1138877;-67
2023/05/31 09:45:03;;;;;;;2.60;1.50;;;;;;;22.18;34.90;101490.36;5142142;56;1138785;-66
2023/05/31 09:50:20;;;;;;;1.20;1.10;;;;;;;22.39;36.26;101486.12;5141232;56;1138931;-67
2023/05/31 09:55:25;;;;;;;1.67;1.17;;;;;;;22.47;32.88;101482.55;5077301;57;1139242;-69
2023/05/31 10:00:31;;;;;;;1.57;1.02;;;;;;;22.46;33.40;101476.81;5057535;57;1138644;-67
2023/05/31 10:05:37;;;;;;;1.77;0.90;;;;;;;22.55;31.72;101480.34;5064406;56;1139069;-69
2023/05/31 10:10:43;;;;;;;2.02;1.27;;;;;;;22.42;30.94;101472.30;5124122;56;1138902;-67
2023/05/31 10:15:50;;;;;;;1.80;1.20;;;;;;;22.42;30.50;101468.77;5057093;57;1138892;-66
2023/05/31 10:21:05;;;;;;;3.52;1.07;;;;;;;22.56;30.45;101470.73;5057646;56;1138794;-70
2023/05/31 10:26:17;;;;;;;5.33;1.10;;;;;;;22.51;30.20;101463.67;4992921;57;1148286;-69
2023/05/31 10:31:33;;;;;;;1.10;1.00;;;;;;;22.95;30.88;101451.88;5055663;57;1138737;-69
2023/05/31 10:36:39;;;;;;;10.53;1.98;;;;;;;23.19;26.24;101440.11;5054676;57;1138855;-67
2023/05/31 10:41:49;;;;;;;5.35;1.52;;;;;;;23.30;26.15;101434.80;5055683;57;1140884;-66
2023/05/31 10:46:59;;;;;;;1.77;0.98;;;;;;;23.40;27.54;101438.92;5075134;56;1138993;-68
2023/05/31 10:52:10;;;;;;;3.32;1.22;;;;;;;23.60;29.35;101440.66;5021950;57;1139096;-68
2023/05/31 10:57:17;;;;;;;5.77;1.43;;;;;;;23.82;29.68;101432.21;4971778;57;1138954;-67
2023/05/31 11:02:23;;;;;;;1.42;1.30;;;;;;;24.03;28.37;101420.67;4991532;56;1138670;-70
2023/05/31 11:07:32;;;;;;;2.72;1.10;;;;;;;24.18;29.43;101414.77;4973233;56;1138754;-70
2023/05/31 11:12:40;;;;;;;1.80;0.70;;;;;;;24.22;28.74;101417.42;5036843;56;1138874;-67
2023/05/31 11:17:57;;;;;;;2.45;1.00;;;;;;;24.38;29.07;101413.21;5081878;56;1138813;-70
2023/05/31 11:23:27;;;;;;;4.30;1.30;;;;;;;24.68;29.71;101411.31;4959023;58;1138662;-68
2023/05/31 11:28:32;;;;;;;1.22;0.85;;;;;;;24.93;27.30;101398.78;5126357;56;1138705;-69
2023/05/31 11:33:46;;;;;;;1.82;0.90;;;;;;;25.02;27.28;101401.23;5127066;56;1138679;-70
2023/05/31 11:38:52;;;;;;;2.37;1.07;;;;;;;25.03;27.25;101385.31;5147566;56;1138655;-69
2023/05/31 11:43:58;;;;;;;0.75;0.75;;;;;;;25.03;27.25;101385.31;5127052;56;1138784;-66
2023/05/31 11:49:04;;;;;;;5.60;1.47;;;;;;;25.16;26.31;101383.25;5127141;56;1139017;-69
2023/05/31 11:54:17;;;;;;;1.22;1.10;;;;;;;25.21;25.12;101361.30;5077329;56;1138913;-67
2023/05/31 11:59:18;;;;;;;1.95;1.20;;;;;;;25.50;26.12;101352.20;5040835;56;1138731;-68
2023/05/31 12:04:26;;;;;;;3.45;1.20;;;;;;;25.55;26.02;101341.60;5042460;57;1138859;-68
2023/05/31 12:09:33;;;;;;;1.87;0.90;;;;;;;25.50;22.33;101340.53;5042333;57;1139082;-71
2023/05/31 12:14:38;;;;;;;4.17;1.10;;;;;;;25.28;23.47;101347.00;5062111;57;1138637;-70
2023/05/31 12:19:45;;;;;;;1.45;0.90;;;;;;;25.44;23.80;101342.66;5042337;56;1138772;-66
2023/05/31 12:24:53;;;;;;;4.67;1.20;;;;;;;25.67;21.65;101335.14;5018053;56;1138740;-69
2023/05/31 12:30:00;;;;;;;0.88;0.88;;;;;;;25.61;22.92;101335.08;5146540;56;1138818;-69
2023/05/31 12:35:12;;;;;;;6.22;1.50;;;;;;;25.65;21.63;101327.76;5127237;56;1138969;-70
2023/05/31 12:40:22;;;;;;;;;;;;;;;25.45;21.05;101322.67;5130567;56;1139052;-69
2023/05/31 12:45:27;;;;;;;4.03;1.20;;;;;;;25.47;21.61;101309.25;5163216;56;976215;-68
2023/05/31 12:50:33;;;;;;;2.15;1.25;;;;;;;25.66;20.89;101304.21;5118329;56;1136902;-71
2023/05/31 12:55:38;;;;;;;1.40;1.30;;;;;;;25.79;21.83;101295.64;5044194;56;1138912;-70
2023/05/31 13:00:45;;;;;;;1.02;0.95;;;;;;;25.98;19.57;101283.72;5062186;57;1138900;-69
2023/05/31 13:05:51;;;;;;;4.42;1.12;;;;;;;25.88;19.90;101281.39;5042374;57;1138842;-67
2023/05/31 13:10:57;;;;;;;3.12;1.07;;;;;;;25.87;18.31;101274.30;5079162;56;1138965;-69
2023/05/31 13:16:04;;;;;;;1.40;1.30;;;;;;;25.76;19.27;101272.16;4979352;58;1138955;-69
2023/05/31 13:21:10;;;;;;;1.35;1.17;;;;;;;25.78;21.18;101271.45;5121441;56;1138687;-71
2023/05/31 13:26:15;;;;;;;1.98;1.35;;;;;;;26.07;21.01;101260.33;5137950;56;1138860;-67
2023/05/31 13:31:21;;;;;;;1.50;1.40;;;;;;;26.00;19.26;101255.90;5158426;56;1139106;-69
2023/05/31 13:36:27;;;;;;;1.32;0.90;;;;;;;26.01;19.99;101250.80;5138284;56;1138851;-67
2023/05/31 13:41:33;;;;;;;2.45;1.57;;;;;;;26.21;19.87;101239.00;5137885;56;1138961;-70
2023/05/31 13:46:38;;;;;;;4.65;1.42;;;;;;;26.17;18.92;101234.17;5138228;56;1138913;-66
2023/05/31 13:51:44;;;;;;;4.00;1.30;;;;;;;26.23;21.14;101223.36;5156137;56;1138976;-65
2023/05/31 13:56:51;;;;;;;3.92;1.30;;;;;;;26.32;20.18;101215.89;5137922;56;1139066;-67
2023/05/31 14:01:56;;;;;;;3.62;1.10;;;;;;;26.30;20.29;101204.41;5137887;56;1138759;-66
2023/05/31 14:07:03;;;;;;;3.45;1.20;;;;;;;26.19;18.48;101197.69;5178283;56;1138810;-64
2023/05/31 14:12:09;;;;;;;2.25;1.20;;;;;;;26.27;21.09;101186.66;5080787;56;1139287;-65
2023/05/31 14:17:14;;;;;;;2.57;1.30;;;;;;;26.43;20.83;101181.92;5052847;57;1138877;-68
2023/05/31 14:22:20;;;;;;;2.42;1.02;;;;;;;26.49;21.84;101176.48;5073010;57;1138898;-68
2023/05/31 14:27:26;;;;;;;3.52;1.40;;;;;;;26.43;21.28;101169.72;5054825;57;1138938;-66
2023/05/31 14:32:32;;;;;;;2.22;1.52;;;;;;;26.57;21.99;101152.41;5055109;57;1138988;-67
2023/05/31 14:37:37;;;;;;;5.70;1.87;;;;;;;26.84;22.98;101143.72;5054466;57;1138787;-67
2023/05/31 14:42:43;;;;;;;0.95;0.95;;;;;;;26.91;22.06;101132.31;5074779;57;1138661;-66
2023/05/31 14:47:48;;;;;;;5.22;1.50;;;;;;;26.98;21.66;101122.33;5055410;57;1138794;-63
2023/05/31 14:52:54;;;;;;;7.90;1.62;;;;;;;26.83;22.93;101116.27;5040542;56;1138817;-64
2023/05/31 14:58:00;;;;;;;4.03;1.55;;;;;;;26.67;23.24;101118.89;5055694;57;1138784;-64
2023/05/31 15:03:05;;;;;;;5.58;1.50;;;;;;;26.76;24.01;101113.55;5035748;57;1138675;-65
2023/05/31 15:08:11;;;;;;;2.40;1.30;;;;;;;26.84;24.02;101092.98;5036350;57;1138824;-66
2023/05/31 15:13:17;;;;;;;6.33;1.30;;;;;;;26.93;24.66;101096.30;4998862;57;1138918;-66
2023/05/31 15:18:22;;;;;;;5.60;1.47;;;;;;;26.98;25.06;101091.11;4982921;57;1138989;-68
2023/05/31 15:23:28;;;;;;;4.87;1.60;;;;;;;26.89;24.96;101086.90;5063156;56;1138797;-67
2023/05/31 15:28:33;;;;;;;3.45;1.37;;;;;;;26.90;25.16;101080.42;5109291;56;1138919;-65
2023/05/31 15:33:39;;;;;;;6.50;1.60;;;;;;;26.80;25.41;101072.73;5124141;56;1139025;-65
2023/05/31 15:38:45;;;;;;;3.30;1.90;;;;;;;26.66;25.47;101067.02;5054424;57;1138998;-69
2023/05/31 15:43:50;;;;;;;4.35;1.65;;;;;;;26.60;25.62;101061.06;5050885;57;1138850;-68
2023/05/31 15:48:57;;;;;;;4.28;1.30;;;;;;;26.53;25.92;101054.31;5059203;57;1138877;-65
2023/05/31 15:54:03;;;;;;;3.05;1.45;;;;;;;26.59;25.85;101044.47;5022176;57;1138686;-68
2023/05/31 15:59:09;;;;;;;9.35;1.60;;;;;;;26.48;25.90;101043.24;5034889;57;1138912;-66
2023/05/31 16:04:14;;;;;;;18.23;2.87;;;;;;;26.44;25.80;101035.20;5056022;57;1139175;-65
2023/05/31 16:09:20;;;;;;;5.60;1.50;;;;;;;26.39;25.81;101036.91;5038570;56;1140760;-67
2023/05/31 16:14:26;;;;;;;3.77;1.37;;;;;;;26.37;25.46;101026.26;5004357;57;1138682;-71
2023/05/31 16:19:35;;;;;;;2.98;1.30;;;;;;;26.45;24.55;101032.80;5016948;57;1138819;-67
2023/05/31 16:24:40;;;;;;;1.80;1.70;;;;;;;26.36;24.89;101018.33;5062317;57;1138715;-69
2023/05/31 16:29:46;;;;;;;7.37;1.42;;;;;;;26.33;25.71;101003.83;5056541;56;1138820;-69
2023/05/31 16:34:52;;;;;;;5.12;1.47;;;;;;;26.28;25.61;101004.41;5041530;56;1138770;-70
2023/05/31 16:39:57;;;;;;;9.18;2.42;;;;;;;26.30;25.79;100997.45;5081002;56;1138960;-66
2023/05/31 16:45:03;;;;;;;3.83;2.47;;;;;;;26.24;26.63;100998.60;5139535;56;1138821;-69
2023/05/31 16:50:09;;;;;;;2.87;1.62;;;;;;;26.19;27.02;101000.27;5069212;56;1139041;-68
2023/05/31 16:55:15;;;;;;;8.53;1.62;;;;;;;26.02;27.17;100997.14;4894185;59;1138907;-69
2023/05/31 17:00:21;;;;;;;10.38;2.05;;;;;;;25.93;27.77;100988.91;5037876;57;1138695;-67
2023/05/31 17:05:26;;;;;;;10.75;2.08;;;;;;;25.87;28.40;100979.72;4875904;59;1141073;-68
2023/05/31 17:10:32;;;;;;;7.22;1.92;;;;;;;25.78;28.80;100980.98;5040639;56;1140901;-67
2023/05/31 17:15:38;;;;;;;2.08;1.42;;;;;;;25.61;29.23;100970.19;5114747;56;1138722;-68
2023/05/31 17:20:44;;;;;;;5.60;1.57;;;;;;;25.48;29.82;100966.95;5062832;56;1138637;-68
2023/05/31 17:25:50;;;;;;;3.85;2.10;;;;;;;25.43;30.02;100957.23;5108139;56;1138856;-69
2023/05/31 17:30:55;;;;;;;5.33;1.45;;;;;;;25.30;30.36;100949.61;5090236;56;1138701;-67
2023/05/31 17:36:01;;;;;;;30.00;2.40;;;;;;;25.23;30.59;100943.64;5067789;56;1139076;-68
2023/05/31 17:41:07;;;;;;;12.47;3.25;;;;;;;25.17;30.92;100940.94;4947637;58;1140977;-70
2023/05/31 17:46:12;;;;;;;3.22;1.57;;;;;;;25.09;31.24;100939.23;5067988;56;1140725;-71
2023/05/31 17:51:18;;;;;;;6.77;1.57;;;;;;;24.90;31.01;100938.09;5057854;56;1138704;-70
2023/05/31 17:56:23;;;;;;;9.13;2.00;;;;;;;24.80;31.37;100933.59;5058291;56;1138640;-67
2023/05/31 18:01:30;;;;;;;7.00;2.08;;;;;;;24.70;31.05;100931.78;5008079;57;1138936;-68
2023/05/31 18:06:36;;;;;;;4.10;2.60;;;;;;;24.56;30.52;100920.59;5063850;56;1138789;-66
2023/05/31 18:11:42;;;;;;;4.40;1.77;;;;;;;24.50;30.78;100917.31;5047741;56;1138951;-71
2023/05/31 18:16:49;;;;;;;7.12;2.25;;;;;;;24.42;31.34;100916.14;5088802;56;1138840;-66
2023/05/31 18:21:55;;;;;;;2.27;1.80;;;;;;;24.29;31.48;100910.12;5051657;56;1138694;-71
2023/05/31 18:27:19;;;;;;;6.80;1.72;;;;;;;24.24;31.59;100909.06;5082303;56;1138852;-67
2023/05/31 18:32:25;;;;;;;8.00;1.57;;;;;;;24.14;32.01;100908.85;5063013;56;1139037;-69
2023/05/31 18:37:30;;;;;;;8.95;2.00;;;;;;;24.01;32.40;100907.41;5119182;56;1138823;-65
2023/05/31 18:42:36;;;;;;;6.15;1.85;;;;;;;23.88;32.89;100904.63;5126382;56;1139062;-70
2023/05/31 18:47:41;;;;;;;13.35;2.45;;;;;;;23.75;33.37;100898.61;5126687;56;1138677;-69
2023/05/31 18:52:48;;;;;;;5.37;1.95;;;;;;;23.64;33.79;100895.61;4995975;57;1141073;-69
2023/05/31 18:57:54;;;;;;;6.20;2.40;;;;;;;23.62;36.24;100894.97;5069098;56;1138677;-69
2023/05/31 19:02:59;;;;;;;3.88;2.12;;;;;;;23.54;35.39;100891.03;5102253;56;1138915;-65
2023/05/31 19:08:05;;;;;;;7.85;2.40;;;;;;;23.27;35.12;100891.28;5125133;56;1138826;-66
2023/05/31 19:13:11;;;;;;;18.48;5.22;;;;;;;23.08;35.62;100894.92;5108582;56;1138962;-70
2023/05/31 19:18:19;;;;;;;20.32;6.58;;;;;;;23.09;37.26;100898.45;5131003;56;1140856;-69
2023/05/31 19:23:25;;;;;;;12.78;3.52;;;;;;;23.09;38.81;100900.64;5087284;56;1140849;-70
2023/05/31 19:28:30;;;;;;;13.30;2.83;;;;;;;23.06;40.89;100907.80;5052807;56;1140692;-69
2023/05/31 19:33:36;;;;;;;16.16;3.38;;;;;;;23.03;41.11;100906.82;5040433;56;1140970;-70
2023/05/31 19:38:43;;;;;;;5.58;2.85;;;;;;;22.94;41.20;100903.90;5121929;56;1141112;-70
2023/05/31 19:43:48;;;;;;;11.70;3.37;;;;;;;22.91;41.40;100900.26;5115843;56;1138953;-67
2023/05/31 19:48:55;;;;;;;13.00;3.87;;;;;;;22.86;40.89;100907.23;5052270;56;1140805;-71
2023/05/31 19:54:01;;;;;;;34.75;8.43;;;;;;;22.80;40.56;100912.86;5069616;56;1141133;-67
2023/05/31 19:59:08;;;;;;;24.90;10.85;;;;;;;22.73;40.97;100908.72;5041987;57;1140921;-69
2023/05/31 20:04:14;;;;;;;23.82;8.28;;;;;;;22.62;42.55;100911.04;5040226;57;1143056;-68
2023/05/31 20:09:20;;;;;;;11.75;4.95;;;;;;;22.54;43.66;100911.16;5062285;57;1140701;-68
2023/05/31 20:14:26;;;;;;;12.23;4.47;;;;;;;22.41;44.30;100905.08;5042425;56;1141202;-71
2023/05/31 20:19:31;;;;;;;12.50;4.58;;;;;;;22.29;44.87;100911.45;5094124;56;1141003;-71
2023/05/31 20:24:37;;;;;;;12.37;6.03;;;;;;;21.99;45.44;100907.91;5090230;56;1140859;-70
2023/05/31 20:29:43;;;;;;;24.72;9.45;;;;;;;21.72;46.36;100904.41;5133282;56;1140901;-71
2023/05/31 20:34:48;;;;;;;95.70;10.50;;;;;;;21.57;47.00;100908.91;4966058;57;1140829;-67
2023/05/31 20:39:54;;;;;;;34.80;5.12;;;;;;;21.49;47.61;100899.06;5117895;56;1143190;-70
2023/05/31 20:45:00;;;;;;;22.93;5.25;;;;;;;21.43;47.84;100899.77;5146648;56;1140811;-70
2023/05/31 20:50:11;;;;;;;20.15;6.35;;;;;;;21.31;48.30;100895.83;5067574;56;1141288;-68
2023/05/31 20:55:13;;;;;;;12.50;6.33;;;;;;;20.95;47.83;100901.74;5042110;56;1141187;-69
2023/05/31 21:00:21;;;;;;;11.28;4.62;;;;;;;20.66;49.18;100894.34;5062462;56;1141044;-71
2023/05/31 21:05:26;;;;;;;19.25;5.05;;;;;;;20.64;49.92;100897.70;4959021;56;1141165;-69
2023/05/31 21:10:31;;;;;;;14.18;6.22;;;;;;;20.63;49.98;100890.65;5042155;56;1140995;-70
2023/05/31 21:15:37;;;;;;;39.27;6.67;;;;;;;20.41;49.98;100902.17;5042118;56;1140908;-68
2023/05/31 21:20:43;;;;;;;19.50;8.15;;;;;;;20.15;50.96;100889.48;5061823;57;1140996;-68
2023/05/31 21:25:49;;;;;;;17.12;6.55;;;;;;;20.16;51.64;100887.97;5076543;56;1141101;-69
2023/05/31 21:30:54;;;;;;;24.40;5.20;;;;;;;20.07;51.63;100879.58;5126005;56;1140951;-68
2023/05/31 21:36:00;;;;;;;5.35;3.20;;;;;;;20.05;52.17;100876.73;5145223;56;1140984;-68
2023/05/31 21:41:06;;;;;;;7.33;3.08;;;;;;;20.03;52.23;100868.84;5126300;56;1139223;-70
2023/05/31 21:46:12;;;;;;;12.90;3.77;;;;;;;20.00;52.41;100864.68;5106348;56;1138777;-68
2023/05/31 21:51:17;;;;;;;11.60;3.10;;;;;;;19.93;52.31;100862.33;5125703;56;1140826;-68
2023/05/31 21:56:23;;;;;;;10.45;4.28;;;;;;;19.84;52.34;100858.00;5042098;56;1140982;-69
2023/05/31 22:01:29;;;;;;;6.53;3.50;;;;;;;19.70;52.39;100856.52;4959841;57;1140909;-67
2023/05/31 22:06:34;;;;;;;6.78;3.40;;;;;;;19.60;52.76;100854.83;5041411;56;1139087;-70
2023/05/31 22:11:40;;;;;;;10.78;4.00;;;;;;;19.48;53.11;100847.27;4978509;57;1138925;-69
2023/05/31 22:16:48;;;;;;;16.42;4.83;;;;;;;19.33;53.46;100853.31;5116019;56;1140747;-68
2023/05/31 22:21:54;;;;;;;18.73;5.30;;;;;;;19.26;54.06;100846.92;5041577;57;1140978;-67
2023/05/31 22:27:00;;;;;;;15.20;3.90;;;;;;;19.17;54.42;100845.25;5114854;56;1141016;-66
2023/05/31 22:32:06;;;;;;;14.25;4.35;;;;;;;19.07;54.70;100851.79;5126058;56;1141155;-64
2023/05/31 22:37:12;;;;;;;6.90;4.10;;;;;;;18.66;55.05;100841.47;5132077;56;1140950;-68
2023/05/31 22:42:18;;;;;;;27.62;4.40;;;;;;;18.26;56.07;100849.67;5162218;55;1139163;-67
2023/05/31 22:47:24;;;;;;;20.20;6.03;;;;;;;17.87;56.75;100846.11;5126102;56;1140764;-69
2023/05/31 22:52:29;;;;;;;20.88;8.73;;;;;;;17.62;57.65;100849.60;5085042;56;1140787;-69
2023/05/31 22:57:35;;;;;;;21.60;6.60;;;;;;;17.61;58.47;100852.43;4973976;57;1140975;-71
2023/05/31 23:02:42;;;;;;;18.90;6.15;;;;;;;17.44;58.26;100845.62;5145614;56;1140819;-67
2023/05/31 23:07:49;;;;;;;10.40;5.22;;;;;;;17.43;58.58;100849.78;4958281;58;1140734;-67